createdAt,value
2016-06-21T00:00:11.978Z,0
2016-06-21T00:01:11.977Z,0
2016-06-21T00:02:12.589Z,0
2016-06-21T00:03:13.413Z,0
2016-06-21T00:04:11.988Z,0
2016-06-21T00:05:12.305Z,0
2016-06-21T00:06:12.601Z,0
2016-06-21T00:07:11.525Z,0
2016-06-21T00:08:11.999Z,0
2016-06-21T00:09:12.009Z,0
2016-06-21T00:10:12.631Z,0
2016-06-21T00:11:11.431Z,0
2016-06-21T00:12:13.403Z,0
2016-06-21T00:13:11.394Z,0
2016-06-21T00:14:13.088Z,0
2016-06-21T00:15:11.409Z,0
2016-06-21T00:16:12.650Z,0
2016-06-21T00:17:12.671Z,0
2016-06-21T00:18:12.064Z,0
2016-06-21T00:19:11.434Z,0
2016-06-21T00:20:12.048Z,0
2016-06-21T00:21:12.055Z,0
2016-06-21T00:22:11.465Z,0
2016-06-21T00:23:13.272Z,0
2016-06-21T00:24:12.083Z,0
2016-06-21T00:25:12.886Z,0
2016-06-21T00:26:11.468Z,0
2016-06-21T00:27:12.101Z,0
2016-06-21T00:28:12.096Z,0
2016-06-21T00:29:12.094Z,0
2016-06-21T00:30:10.874Z,0
2016-06-21T00:31:12.136Z,0
2016-06-21T00:32:12.111Z,0
2016-06-21T00:33:12.117Z,0
2016-06-21T00:34:10.923Z,0
2016-06-21T00:35:12.746Z,0
2016-06-21T00:36:12.956Z,0
2016-06-21T00:37:12.759Z,0
2016-06-21T00:38:12.144Z,0
2016-06-21T00:39:12.165Z,0
2016-06-21T00:40:12.165Z,0
2016-06-21T00:41:12.791Z,0
2016-06-21T00:42:12.771Z,0
2016-06-21T00:43:12.784Z,0
2016-06-21T00:44:12.790Z,0
2016-06-21T00:45:12.897Z,0
2016-06-21T00:46:12.812Z,0
2016-06-21T00:47:11.873Z,0
2016-06-21T00:48:12.194Z,0
2016-06-21T00:49:12.203Z,0
2016-06-21T00:50:12.202Z,0
2016-06-21T00:51:12.819Z,0
2016-06-21T00:52:11.590Z,0
2016-06-21T00:53:12.205Z,0
2016-06-21T00:54:11.603Z,0
2016-06-21T00:55:11.624Z,0
2016-06-21T00:56:13.194Z,0
2016-06-21T00:57:11.608Z,0
2016-06-21T00:58:12.245Z,0
2016-06-21T00:59:12.880Z,0
2016-06-21T01:00:12.995Z,0
2016-06-21T01:01:12.909Z,0
2016-06-21T01:02:11.645Z,0
2016-06-21T01:03:12.291Z,0
2016-06-21T01:04:11.041Z,0
2016-06-21T01:05:12.278Z,0
2016-06-21T01:06:12.280Z,0
2016-06-21T01:07:12.731Z,0
2016-06-21T01:08:12.339Z,0
2016-06-21T01:09:11.675Z,0
2016-06-21T01:10:12.300Z,0
2016-06-21T01:11:13.310Z,0
2016-06-21T01:12:13.000Z,0
2016-06-21T01:13:11.690Z,0
2016-06-21T01:14:12.930Z,0
2016-06-21T01:15:12.335Z,0
2016-06-21T01:16:12.335Z,0
2016-06-21T01:17:12.371Z,0
2016-06-21T01:18:11.734Z,0
2016-06-21T01:19:12.339Z,0
2016-06-21T01:20:13.447Z,0
2016-06-21T01:21:11.735Z,0
2016-06-21T01:22:12.366Z,0
2016-06-21T01:23:12.367Z,0
2016-06-21T01:24:11.841Z,0
2016-06-21T01:25:12.374Z,0
2016-06-21T01:26:12.987Z,0
2016-06-21T01:27:12.363Z,0
2016-06-21T01:28:12.388Z,0
2016-06-21T01:29:13.300Z,0
2016-06-21T01:30:12.376Z,0
2016-06-21T01:31:12.993Z,0
2016-06-21T01:32:12.407Z,0
2016-06-21T01:33:13.033Z,0
2016-06-21T01:34:13.019Z,0
2016-06-21T01:35:12.411Z,0
2016-06-21T01:36:12.415Z,0
2016-06-21T01:37:11.800Z,0
2016-06-21T01:38:11.815Z,0
2016-06-21T01:39:11.823Z,0
2016-06-21T01:40:13.052Z,0
2016-06-21T01:41:11.829Z,0
2016-06-21T01:42:12.731Z,0
2016-06-21T01:43:12.456Z,0
2016-06-21T01:44:12.453Z,0
2016-06-21T01:45:12.472Z,0
2016-06-21T01:46:12.476Z,0
2016-06-21T01:47:11.848Z,0
2016-06-21T01:48:12.469Z,0
2016-06-21T01:49:12.514Z,0
2016-06-21T01:50:13.106Z,0
2016-06-21T01:51:13.402Z,0
2016-06-21T01:52:11.887Z,0
2016-06-21T01:53:12.402Z,0
2016-06-21T01:54:11.897Z,0
2016-06-21T01:55:12.515Z,0
2016-06-21T01:56:13.151Z,0
2016-06-21T01:57:11.941Z,0
2016-06-21T01:58:12.553Z,0
2016-06-21T01:59:13.166Z,0
2016-06-21T02:00:12.551Z,0
2016-06-21T02:01:12.563Z,0
2016-06-21T02:02:12.174Z,0
2016-06-21T02:03:12.548Z,0
2016-06-21T02:04:12.558Z,0
2016-06-21T02:05:12.574Z,0
2016-06-21T02:06:14.122Z,0
2016-06-21T02:07:11.960Z,0
2016-06-21T02:08:13.229Z,0
2016-06-21T02:09:11.985Z,0
2016-06-21T02:10:13.212Z,0
2016-06-21T02:11:13.281Z,0
2016-06-21T02:12:12.603Z,0
2016-06-21T02:13:13.402Z,0
2016-06-21T02:14:13.253Z,0
2016-06-21T02:15:12.975Z,0
2016-06-21T02:16:12.005Z,0
2016-06-21T02:17:12.013Z,0
2016-06-21T02:18:13.244Z,0
2016-06-21T02:19:12.074Z,0
2016-06-21T02:20:12.030Z,0
2016-06-21T02:21:12.657Z,0
2016-06-21T02:22:11.434Z,0
2016-06-21T02:23:11.411Z,0
2016-06-21T02:24:13.134Z,0
2016-06-21T02:25:12.661Z,0
2016-06-21T02:26:13.310Z,0
2016-06-21T02:27:12.670Z,0
2016-06-21T02:28:11.539Z,0
2016-06-21T02:29:12.692Z,0
2016-06-21T02:30:12.698Z,0
2016-06-21T02:31:12.701Z,0
2016-06-21T02:32:13.309Z,0
2016-06-21T02:33:13.326Z,0
2016-06-21T02:34:12.713Z,0
2016-06-21T02:35:12.989Z,0
2016-06-21T02:36:12.754Z,0
2016-06-21T02:37:12.742Z,0
2016-06-21T02:38:13.352Z,0
2016-06-21T02:39:12.735Z,0
2016-06-21T02:40:12.741Z,0
2016-06-21T02:41:12.769Z,0
2016-06-21T02:42:12.144Z,0
2016-06-21T02:43:13.366Z,0
2016-06-21T02:44:12.770Z,0
2016-06-21T02:45:12.775Z,0
2016-06-21T02:46:13.491Z,0
2016-06-21T02:47:12.788Z,0
2016-06-21T02:48:12.453Z,0
2016-06-21T02:49:12.196Z,0
2016-06-21T02:50:14.183Z,0
2016-06-21T02:51:12.803Z,0
2016-06-21T02:52:12.795Z,0
2016-06-21T02:53:12.827Z,0
2016-06-21T02:54:13.429Z,0
2016-06-21T02:55:12.834Z,0
2016-06-21T02:56:13.454Z,0
2016-06-21T02:57:12.611Z,0
2016-06-21T02:58:12.827Z,0
2016-06-21T02:59:12.839Z,0
2016-06-21T03:00:13.479Z,0
2016-06-21T03:01:14.588Z,0
2016-06-21T03:02:12.251Z,0
2016-06-21T03:03:11.642Z,4
2016-06-21T03:04:12.247Z,4
2016-06-21T03:05:12.871Z,0
2016-06-21T03:06:12.894Z,0
2016-06-21T03:07:12.259Z,0
2016-06-21T03:08:13.043Z,0
2016-06-21T03:09:13.528Z,0
2016-06-21T03:10:12.298Z,0
2016-06-21T03:11:13.526Z,4
2016-06-21T03:12:14.393Z,4
2016-06-21T03:13:12.913Z,0
2016-06-21T03:14:12.921Z,0
2016-06-21T03:15:12.924Z,4
2016-06-21T03:16:12.938Z,4
2016-06-21T03:17:12.934Z,4
2016-06-21T03:18:12.928Z,0
2016-06-21T03:19:13.573Z,0
2016-06-21T03:20:13.628Z,4
2016-06-21T03:21:14.041Z,4
2016-06-21T03:22:12.957Z,4
2016-06-21T03:23:14.067Z,4
2016-06-21T03:24:12.981Z,0
2016-06-21T03:25:13.587Z,4
2016-06-21T03:26:12.988Z,4
2016-06-21T03:27:13.595Z,4
2016-06-21T03:28:13.605Z,4
2016-06-21T03:29:13.006Z,4
2016-06-21T03:30:12.999Z,4
2016-06-21T03:31:13.624Z,8
2016-06-21T03:32:14.102Z,8
2016-06-21T03:33:12.409Z,8
2016-06-21T03:34:13.627Z,8
2016-06-21T03:35:13.648Z,8
2016-06-21T03:36:12.410Z,8
2016-06-21T03:37:13.039Z,8
2016-06-21T03:38:13.050Z,8
2016-06-21T03:39:13.670Z,8
2016-06-21T03:40:12.439Z,12
2016-06-21T03:41:13.051Z,12
2016-06-21T03:42:13.684Z,12
2016-06-21T03:43:14.748Z,12
2016-06-21T03:44:13.087Z,12
2016-06-21T03:45:14.259Z,16
2016-06-21T03:46:12.452Z,16
2016-06-21T03:47:13.106Z,12
2016-06-21T03:48:13.703Z,12
2016-06-21T03:49:13.096Z,12
2016-06-21T03:50:13.094Z,16
2016-06-21T03:51:13.110Z,16
2016-06-21T03:52:13.107Z,16
2016-06-21T03:53:13.726Z,20
2016-06-21T03:54:13.814Z,20
2016-06-21T03:55:11.899Z,20
2016-06-21T03:56:13.286Z,24
2016-06-21T03:57:13.754Z,28
2016-06-21T03:58:13.762Z,32
2016-06-21T03:59:13.135Z,32
2016-06-21T04:00:13.811Z,40
2016-06-21T04:01:13.167Z,44
2016-06-21T04:02:13.158Z,44
2016-06-21T04:03:13.173Z,48
2016-06-21T04:04:12.553Z,52
2016-06-21T04:05:14.026Z,48
2016-06-21T04:06:13.187Z,52
2016-06-21T04:07:13.184Z,44
2016-06-21T04:08:13.811Z,44
2016-06-21T04:09:13.208Z,40
2016-06-21T04:10:12.581Z,36
2016-06-21T04:11:13.205Z,36
2016-06-21T04:12:13.223Z,40
2016-06-21T04:13:13.270Z,40
2016-06-21T04:14:13.220Z,44
2016-06-21T04:15:13.834Z,44
2016-06-21T04:16:14.014Z,44
2016-06-21T04:17:13.243Z,52
2016-06-21T04:18:13.023Z,48
2016-06-21T04:19:13.868Z,44
2016-06-21T04:20:12.701Z,40
2016-06-21T04:21:13.255Z,36
2016-06-21T04:22:13.256Z,40
2016-06-21T04:23:13.275Z,44
2016-06-21T04:24:12.641Z,52
2016-06-21T04:25:13.289Z,56
2016-06-21T04:26:13.281Z,68
2016-06-21T04:27:28.113Z,80
2016-06-21T04:28:13.280Z,80
2016-06-21T04:29:13.030Z,88
2016-06-21T04:30:13.300Z,96
2016-06-21T04:31:12.692Z,92
2016-06-21T04:32:13.309Z,92
2016-06-21T04:33:12.697Z,88
2016-06-21T04:34:13.930Z,84
2016-06-21T04:35:13.345Z,80
2016-06-21T04:36:12.710Z,80
2016-06-21T04:37:13.330Z,76
2016-06-21T04:38:14.552Z,72
2016-06-21T04:39:12.734Z,64
2016-06-21T04:40:13.508Z,60
2016-06-21T04:41:13.985Z,60
2016-06-21T04:42:12.752Z,64
2016-06-21T04:43:12.748Z,68
2016-06-21T04:44:13.994Z,68
2016-06-21T04:45:12.758Z,64
2016-06-21T04:46:13.384Z,64
2016-06-21T04:47:13.383Z,56
2016-06-21T04:48:13.383Z,48
2016-06-21T04:49:13.727Z,44
2016-06-21T04:50:13.410Z,40
2016-06-21T04:51:14.765Z,36
2016-06-21T04:52:12.169Z,36
2016-06-21T04:53:13.419Z,32
2016-06-21T04:54:12.828Z,28
2016-06-21T04:55:12.800Z,32
2016-06-21T04:56:14.055Z,36
2016-06-21T04:57:14.051Z,36
2016-06-21T04:58:13.438Z,40
2016-06-21T04:59:12.814Z,40
2016-06-21T05:00:14.425Z,48
2016-06-21T05:01:13.445Z,48
2016-06-21T05:02:12.850Z,48
2016-06-21T05:03:14.071Z,52
2016-06-21T05:04:13.471Z,64
2016-06-21T05:05:12.854Z,88
2016-06-21T05:06:12.863Z,108
2016-06-21T05:07:13.488Z,120
2016-06-21T05:08:13.473Z,112
2016-06-21T05:09:12.255Z,100
2016-06-21T05:10:13.497Z,96
2016-06-21T05:11:13.499Z,104
2016-06-21T05:12:13.511Z,112
2016-06-21T05:13:12.919Z,116
2016-06-21T05:14:14.187Z,120
2016-06-21T05:15:14.138Z,128
2016-06-21T05:16:12.914Z,156
2016-06-21T05:17:12.908Z,200
2016-06-21T05:18:12.903Z,184
2016-06-21T05:19:13.545Z,128
2016-06-21T05:20:14.183Z,76
2016-06-21T05:21:13.539Z,56
2016-06-21T05:22:14.168Z,52
2016-06-21T05:23:13.554Z,52
2016-06-21T05:24:15.126Z,52
2016-06-21T05:25:13.624Z,60
2016-06-21T05:26:13.569Z,88
2016-06-21T05:27:12.962Z,100
2016-06-21T05:28:14.196Z,104
2016-06-21T05:29:12.977Z,100
2016-06-21T05:30:12.979Z,100
2016-06-21T05:31:13.600Z,108
2016-06-21T05:32:14.277Z,120
2016-06-21T05:33:15.496Z,160
2016-06-21T05:34:13.618Z,196
2016-06-21T05:35:14.960Z,236
2016-06-21T05:36:13.621Z,260
2016-06-21T05:37:14.242Z,268
2016-06-21T05:38:13.648Z,276
2016-06-21T05:39:13.645Z,256
2016-06-21T05:40:13.659Z,244
2016-06-21T05:41:13.647Z,216
2016-06-21T05:42:14.277Z,228
2016-06-21T05:43:13.650Z,220
2016-06-21T05:44:15.650Z,216
2016-06-21T05:45:13.042Z,196
2016-06-21T05:46:15.101Z,172
2016-06-21T05:47:14.309Z,172
2016-06-21T05:48:14.304Z,160
2016-06-21T05:49:13.687Z,156
2016-06-21T05:50:13.691Z,164
2016-06-21T05:51:13.720Z,136
2016-06-21T05:52:13.710Z,136
2016-06-21T05:53:13.086Z,120
2016-06-21T05:54:13.105Z,112
2016-06-21T05:55:13.101Z,116
2016-06-21T05:56:13.732Z,92
2016-06-21T05:57:15.274Z,76
2016-06-21T05:58:13.735Z,76
2016-06-21T05:59:14.342Z,64
2016-06-21T06:00:13.134Z,52
2016-06-21T06:01:13.742Z,56
2016-06-21T06:02:14.373Z,60
2016-06-21T06:03:14.399Z,64
2016-06-21T06:04:13.796Z,92
2016-06-21T06:05:14.387Z,128
2016-06-21T06:06:13.773Z,168
2016-06-21T06:07:13.801Z,184
2016-06-21T06:08:15.190Z,208
2016-06-21T06:09:13.813Z,220
2016-06-21T06:10:13.174Z,196
2016-06-21T06:11:14.425Z,188
2016-06-21T06:12:14.433Z,168
2016-06-21T06:13:13.806Z,168
2016-06-21T06:14:13.317Z,128
2016-06-21T06:15:14.443Z,120
2016-06-21T06:16:14.426Z,124
2016-06-21T06:17:15.583Z,152
2016-06-21T06:18:13.834Z,136
2016-06-21T06:19:15.547Z,128
2016-06-21T06:20:14.458Z,112
2016-06-21T06:21:13.855Z,128
2016-06-21T06:22:13.234Z,140
2016-06-21T06:23:13.909Z,184
2016-06-21T06:24:13.880Z,240
2016-06-21T06:25:14.487Z,272
2016-06-21T06:26:14.497Z,272
2016-06-21T06:27:13.935Z,272
2016-06-21T06:28:13.892Z,296
2016-06-21T06:29:13.915Z,316
2016-06-21T06:30:15.419Z,328
2016-06-21T06:31:13.894Z,328
2016-06-21T06:32:13.911Z,320
2016-06-21T06:33:13.290Z,308
2016-06-21T06:34:13.293Z,300
2016-06-21T06:35:13.923Z,288
2016-06-21T06:36:14.525Z,284
2016-06-21T06:37:14.597Z,276
2016-06-21T06:38:13.929Z,268
2016-06-21T06:39:14.553Z,256
2016-06-21T06:40:13.923Z,248
2016-06-21T06:41:15.410Z,224
2016-06-21T06:42:14.591Z,224
2016-06-21T06:43:14.566Z,236
2016-06-21T06:44:14.628Z,260
2016-06-21T06:45:13.959Z,292
2016-06-21T06:46:13.965Z,376
2016-06-21T06:47:13.976Z,544
2016-06-21T06:48:13.974Z,480
2016-06-21T06:49:13.985Z,468
2016-06-21T06:50:15.938Z,576
2016-06-21T06:51:14.625Z,524
2016-06-21T06:52:15.116Z,492
2016-06-21T06:53:14.615Z,480
2016-06-21T06:54:13.389Z,492
2016-06-21T06:55:13.401Z,468
2016-06-21T06:56:14.026Z,444
2016-06-21T06:57:14.031Z,432
2016-06-21T06:58:14.038Z,424
2016-06-21T06:59:12.808Z,420
2016-06-21T07:00:14.660Z,380
2016-06-21T07:01:14.086Z,356
2016-06-21T07:02:14.678Z,332
2016-06-21T07:03:13.445Z,312
2016-06-21T07:04:14.682Z,304
2016-06-21T07:05:14.071Z,300
2016-06-21T07:06:14.099Z,304
2016-06-21T07:07:14.078Z,280
2016-06-21T07:08:14.108Z,260
2016-06-21T07:09:14.114Z,264
2016-06-21T07:10:14.097Z,272
2016-06-21T07:11:14.733Z,272
2016-06-21T07:12:14.129Z,264
2016-06-21T07:13:14.723Z,264
2016-06-21T07:14:15.071Z,280
2016-06-21T07:15:13.606Z,276
2016-06-21T07:16:14.746Z,240
2016-06-21T07:17:14.140Z,256
2016-06-21T07:18:14.757Z,284
2016-06-21T07:19:13.537Z,316
2016-06-21T07:20:14.163Z,356
2016-06-21T07:21:14.175Z,356
2016-06-21T07:22:14.171Z,364
2016-06-21T07:23:14.981Z,420
2016-06-21T07:24:14.820Z,432
2016-06-21T07:25:14.007Z,416
2016-06-21T07:26:14.177Z,452
2016-06-21T07:27:13.618Z,504
2016-06-21T07:28:14.820Z,556
2016-06-21T07:29:14.192Z,580
2016-06-21T07:30:14.830Z,576
2016-06-21T07:31:14.826Z,604
2016-06-21T07:32:14.849Z,640
2016-06-21T07:33:14.210Z,688
2016-06-21T07:34:15.112Z,728
2016-06-21T07:35:13.610Z,760
2016-06-21T07:36:14.077Z,828
2016-06-21T07:37:13.631Z,876
2016-06-21T07:38:14.288Z,896
2016-06-21T07:39:14.286Z,1096
2016-06-21T07:40:13.643Z,1240
2016-06-21T07:41:14.266Z,1108
2016-06-21T07:42:14.903Z,1080
2016-06-21T07:43:13.665Z,836
2016-06-21T07:44:13.666Z,760
2016-06-21T07:45:15.182Z,804
2016-06-21T07:46:14.308Z,820
2016-06-21T07:47:14.312Z,616
2016-06-21T07:48:14.289Z,596
2016-06-21T07:49:13.678Z,556
2016-06-21T07:50:14.937Z,544
2016-06-21T07:51:14.303Z,572
2016-06-21T07:52:14.297Z,608
2016-06-21T07:53:13.691Z,696
2016-06-21T07:54:14.946Z,720
2016-06-21T07:55:14.324Z,644
2016-06-21T07:56:15.174Z,584
2016-06-21T07:57:14.942Z,536
2016-06-21T07:58:14.950Z,632
2016-06-21T07:59:14.953Z,884
2016-06-21T08:00:14.359Z,828
2016-06-21T08:01:14.353Z,800
2016-06-21T08:02:14.977Z,796
2016-06-21T08:03:14.368Z,740
2016-06-21T08:04:14.991Z,664
2016-06-21T08:05:14.985Z,596
2016-06-21T08:06:14.377Z,492
2016-06-21T08:07:15.388Z,520
2016-06-21T08:08:13.772Z,640
2016-06-21T08:09:14.950Z,808
2016-06-21T08:10:13.783Z,972
2016-06-21T08:11:14.403Z,992
2016-06-21T08:12:14.409Z,920
2016-06-21T08:13:15.029Z,692
2016-06-21T08:14:15.045Z,580
2016-06-21T08:15:15.052Z,524
2016-06-21T08:16:14.431Z,556
2016-06-21T08:17:14.486Z,636
2016-06-21T08:18:15.699Z,548
2016-06-21T08:19:14.473Z,476
2016-06-21T08:20:14.611Z,524
2016-06-21T08:21:13.229Z,580
2016-06-21T08:22:15.081Z,504
2016-06-21T08:23:14.475Z,544
2016-06-21T08:24:14.738Z,596
2016-06-21T08:25:13.882Z,608
2016-06-21T08:26:14.499Z,668
2016-06-21T08:27:13.879Z,688
2016-06-21T08:28:14.510Z,640
2016-06-21T08:29:16.278Z,596
2016-06-21T08:30:14.561Z,576
2016-06-21T08:31:14.757Z,608
2016-06-21T08:32:14.523Z,764
2016-06-21T08:33:14.519Z,760
2016-06-21T08:34:15.150Z,632
2016-06-21T08:35:13.914Z,628
2016-06-21T08:36:14.576Z,640
2016-06-21T08:37:14.566Z,728
2016-06-21T08:38:13.990Z,772
2016-06-21T08:39:15.174Z,792
2016-06-21T08:40:16.277Z,912
2016-06-21T08:41:14.550Z,900
2016-06-21T08:42:15.399Z,972
2016-06-21T08:43:14.596Z,1120
2016-06-21T08:44:14.594Z,1120
2016-06-21T08:45:14.606Z,1348
2016-06-21T08:46:15.244Z,1288
2016-06-21T08:47:14.591Z,1188
2016-06-21T08:48:14.001Z,1104
2016-06-21T08:49:14.022Z,1064
2016-06-21T08:50:14.621Z,976
2016-06-21T08:51:16.101Z,880
2016-06-21T08:52:14.618Z,852
2016-06-21T08:53:15.028Z,896
2016-06-21T08:54:14.631Z,964
2016-06-21T08:55:14.634Z,1008
2016-06-21T08:56:15.254Z,1020
2016-06-21T08:57:15.278Z,992
2016-06-21T08:58:15.291Z,1040
2016-06-21T08:59:15.280Z,888
2016-06-21T09:00:15.298Z,776
2016-06-21T09:01:14.677Z,688
2016-06-21T09:02:16.077Z,700
2016-06-21T09:03:14.698Z,792
2016-06-21T09:04:15.033Z,756
2016-06-21T09:05:14.698Z,828
2016-06-21T09:06:14.692Z,804
2016-06-21T09:07:14.699Z,780
2016-06-21T09:08:15.339Z,760
2016-06-21T09:09:14.710Z,676
2016-06-21T09:10:14.723Z,744
2016-06-21T09:11:15.343Z,788
2016-06-21T09:12:15.343Z,808
2016-06-21T09:13:15.738Z,952
2016-06-21T09:14:14.158Z,988
2016-06-21T09:15:15.390Z,1048
2016-06-21T09:16:15.370Z,1092
2016-06-21T09:17:15.385Z,1160
2016-06-21T09:18:14.205Z,1192
2016-06-21T09:19:15.391Z,1140
2016-06-21T09:20:14.792Z,1124
2016-06-21T09:21:15.397Z,1104
2016-06-21T09:22:15.414Z,1148
2016-06-21T09:23:15.471Z,1216
2016-06-21T09:24:16.178Z,1188
2016-06-21T09:25:14.214Z,1200
2016-06-21T09:26:15.670Z,1180
2016-06-21T09:27:13.578Z,1144
2016-06-21T09:28:14.839Z,956
2016-06-21T09:29:15.450Z,912
2016-06-21T09:30:14.831Z,1024
2016-06-21T09:31:14.267Z,1100
2016-06-21T09:32:14.853Z,1056
2016-06-21T09:33:14.861Z,1200
2016-06-21T09:34:15.477Z,1132
2016-06-21T09:35:16.606Z,1068
2016-06-21T09:36:14.865Z,1048
2016-06-21T09:37:15.732Z,944
2016-06-21T09:38:14.863Z,816
2016-06-21T09:39:14.938Z,816
2016-06-21T09:40:14.903Z,832
2016-06-21T09:41:14.895Z,924
2016-06-21T09:42:14.945Z,1188
2016-06-21T09:43:14.907Z,1240
2016-06-21T09:44:15.547Z,1092
2016-06-21T09:45:14.923Z,1144
2016-06-21T09:46:16.207Z,1380
2016-06-21T09:47:14.935Z,1420
2016-06-21T09:48:15.175Z,1556
2016-06-21T09:49:14.951Z,1560
2016-06-21T09:50:14.327Z,1660
2016-06-21T09:51:15.579Z,1676
2016-06-21T09:52:15.589Z,1552
2016-06-21T09:53:15.580Z,1436
2016-06-21T09:54:14.995Z,1256
2016-06-21T09:55:14.980Z,1116
2016-06-21T09:56:15.598Z,1032
2016-06-21T09:57:16.021Z,948
2016-06-21T09:58:15.630Z,832
2016-06-21T09:59:15.614Z,728
2016-06-21T10:00:15.636Z,688
2016-06-21T10:01:15.615Z,676
2016-06-21T10:02:15.632Z,712
2016-06-21T10:03:15.061Z,772
2016-06-21T10:04:15.051Z,812
2016-06-21T10:05:15.030Z,836
2016-06-21T10:06:15.051Z,940
2016-06-21T10:07:14.439Z,1008
2016-06-21T10:08:16.665Z,1116
2016-06-21T10:09:15.683Z,1332
2016-06-21T10:10:15.082Z,1620
2016-06-21T10:11:15.690Z,1732
2016-06-21T10:12:15.088Z,1892
2016-06-21T10:13:15.100Z,1768
2016-06-21T10:14:15.711Z,1584
2016-06-21T10:15:15.086Z,1428
2016-06-21T10:16:14.478Z,1404
2016-06-21T10:17:15.727Z,1304
2016-06-21T10:18:15.883Z,1124
2016-06-21T10:19:15.638Z,956
2016-06-21T10:20:15.133Z,860
2016-06-21T10:21:15.139Z,800
2016-06-21T10:22:15.171Z,788
2016-06-21T10:23:15.133Z,800
2016-06-21T10:24:15.161Z,916
2016-06-21T10:25:15.173Z,1096
2016-06-21T10:26:15.158Z,912
2016-06-21T10:27:15.787Z,776
2016-06-21T10:28:15.171Z,652
2016-06-21T10:29:15.799Z,644
2016-06-21T10:30:16.937Z,632
2016-06-21T10:31:15.174Z,584
2016-06-21T10:32:16.095Z,620
2016-06-21T10:33:15.825Z,628
2016-06-21T10:34:15.194Z,668
2016-06-21T10:35:15.203Z,668
2016-06-21T10:36:15.203Z,724
2016-06-21T10:37:15.229Z,760
2016-06-21T10:38:14.586Z,844
2016-06-21T10:39:14.668Z,924
2016-06-21T10:40:15.235Z,1036
2016-06-21T10:41:14.600Z,1212
2016-06-21T10:42:15.223Z,1264
2016-06-21T10:43:16.358Z,1292
2016-06-21T10:44:15.228Z,1328
2016-06-21T10:45:15.767Z,1224
2016-06-21T10:46:14.641Z,1160
2016-06-21T10:47:14.632Z,1256
2016-06-21T10:48:15.267Z,1356
2016-06-21T10:49:15.501Z,1396
2016-06-21T10:50:15.279Z,1380
2016-06-21T10:51:15.911Z,1328
2016-06-21T10:52:16.242Z,1320
2016-06-21T10:53:15.286Z,1272
2016-06-21T10:54:15.860Z,1192
2016-06-21T10:55:15.970Z,1164
2016-06-21T10:56:15.295Z,1176
2016-06-21T10:57:15.938Z,1308
2016-06-21T10:58:15.311Z,1252
2016-06-21T10:59:15.947Z,1064
2016-06-21T11:00:15.354Z,944
2016-06-21T11:01:15.955Z,912
2016-06-21T11:02:15.341Z,916
2016-06-21T11:03:16.147Z,912
2016-06-21T11:04:15.368Z,900
2016-06-21T11:05:16.007Z,972
2016-06-21T11:06:14.754Z,1140
2016-06-21T11:07:16.023Z,1372
2016-06-21T11:08:14.770Z,1460
2016-06-21T11:09:14.762Z,1564
2016-06-21T11:10:16.054Z,1680
2016-06-21T11:11:15.393Z,1752
2016-06-21T11:12:15.385Z,1648
2016-06-21T11:13:14.785Z,1632
2016-06-21T11:14:16.647Z,1516
2016-06-21T11:15:15.422Z,1440
2016-06-21T11:16:16.211Z,1440
2016-06-21T11:17:15.429Z,1368
2016-06-21T11:18:16.083Z,1292
2016-06-21T11:19:16.059Z,1192
2016-06-21T11:20:16.073Z,1252
2016-06-21T11:21:15.515Z,1276
2016-06-21T11:22:15.476Z,1304
2016-06-21T11:23:16.222Z,1328
2016-06-21T11:24:14.231Z,1384
2016-06-21T11:25:14.891Z,1476
2016-06-21T11:26:15.462Z,1556
2016-06-21T11:27:17.071Z,1700
2016-06-21T11:28:15.486Z,2080
2016-06-21T11:29:15.494Z,2236
2016-06-21T11:30:16.158Z,2240
2016-06-21T11:31:14.894Z,2256
2016-06-21T11:32:14.258Z,2280
2016-06-21T11:33:16.192Z,2092
2016-06-21T11:34:15.675Z,1584
2016-06-21T11:35:16.154Z,1428
2016-06-21T11:36:14.919Z,1520
2016-06-21T11:37:15.539Z,1588
2016-06-21T11:38:16.558Z,1556
2016-06-21T11:39:14.938Z,1612
2016-06-21T11:40:14.970Z,1652
2016-06-21T11:41:15.563Z,1752
2016-06-21T11:42:15.591Z,1748
2016-06-21T11:43:15.590Z,1652
2016-06-21T11:44:15.581Z,1584
2016-06-21T11:45:15.269Z,1528
2016-06-21T11:46:14.970Z,1448
2016-06-21T11:47:15.609Z,1404
2016-06-21T11:48:15.611Z,1380
2016-06-21T11:49:15.596Z,1384
2016-06-21T11:50:15.626Z,1388
2016-06-21T11:51:15.023Z,1416
2016-06-21T11:52:15.653Z,1444
2016-06-21T11:53:16.250Z,1468
2016-06-21T11:54:16.271Z,1436
2016-06-21T11:55:15.019Z,1456
2016-06-21T11:56:17.384Z,1304
2016-06-21T11:57:16.275Z,1392
2016-06-21T11:58:15.847Z,1568
2016-06-21T11:59:15.669Z,1192
2016-06-21T12:00:17.561Z,1640
2016-06-21T12:01:16.324Z,1684
2016-06-21T12:02:15.689Z,1740
2016-06-21T12:03:15.686Z,1764
2016-06-21T12:04:16.316Z,1716
2016-06-21T12:05:16.341Z,1724
2016-06-21T12:06:15.699Z,1720
2016-06-21T12:07:16.384Z,1792
2016-06-21T12:08:15.507Z,1852
2016-06-21T12:09:16.751Z,1636
2016-06-21T12:10:15.109Z,1736
2016-06-21T12:11:15.753Z,1948
2016-06-21T12:12:15.770Z,2068
2016-06-21T12:13:15.763Z,1704
2016-06-21T12:14:15.763Z,1704
2016-06-21T12:15:16.392Z,1956
2016-06-21T12:16:15.770Z,1984
2016-06-21T12:17:15.782Z,2272
2016-06-21T12:18:16.646Z,2188
2016-06-21T12:19:15.803Z,2064
2016-06-21T12:20:16.986Z,1836
2016-06-21T12:21:16.528Z,1908
2016-06-21T12:22:16.437Z,1700
2016-06-21T12:23:16.055Z,1316
2016-06-21T12:24:15.823Z,1272
2016-06-21T12:25:16.465Z,1588
2016-06-21T12:26:16.445Z,1532
2016-06-21T12:27:15.830Z,1560
2016-06-21T12:28:15.860Z,1512
2016-06-21T12:29:16.617Z,1628
2016-06-21T12:30:16.518Z,1520
2016-06-21T12:31:17.048Z,1888
2016-06-21T12:32:16.497Z,1844
2016-06-21T12:33:15.923Z,1392
2016-06-21T12:34:15.246Z,1608
2016-06-21T12:35:15.262Z,1612
2016-06-21T12:36:15.934Z,1544
2016-06-21T12:37:15.877Z,1764
2016-06-21T12:38:30.734Z,1548
2016-06-21T12:39:14.677Z,1372
2016-06-21T12:40:15.335Z,1256
2016-06-21T12:41:14.682Z,1248
2016-06-21T12:42:16.599Z,1236
2016-06-21T12:43:16.537Z,1292
2016-06-21T12:44:16.572Z,1360
2016-06-21T12:45:15.319Z,1432
2016-06-21T12:46:16.553Z,1480
2016-06-21T12:47:15.945Z,1516
2016-06-21T12:48:15.327Z,1548
2016-06-21T12:49:15.991Z,1584
2016-06-21T12:50:15.358Z,1660
2016-06-21T12:51:15.981Z,1764
2016-06-21T12:52:16.024Z,1880
2016-06-21T12:53:16.786Z,1928
2016-06-21T12:54:15.367Z,1928
2016-06-21T12:55:16.619Z,1916
2016-06-21T12:56:15.385Z,1904
2016-06-21T12:57:16.002Z,1892
2016-06-21T12:58:16.007Z,1848
2016-06-21T12:59:15.411Z,1800
2016-06-21T13:00:16.636Z,1756
2016-06-21T13:01:15.400Z,1748
2016-06-21T13:02:16.059Z,1756
2016-06-21T13:03:16.651Z,1792
2016-06-21T13:04:17.108Z,1796
2016-06-21T13:05:16.052Z,1868
2016-06-21T13:06:16.650Z,1888
2016-06-21T13:07:16.085Z,1868
2016-06-21T13:08:14.837Z,1788
2016-06-21T13:09:16.077Z,1740
2016-06-21T13:10:16.087Z,1752
2016-06-21T13:11:15.482Z,1704
2016-06-21T13:12:16.714Z,1700
2016-06-21T13:13:16.102Z,1752
2016-06-21T13:14:16.104Z,1660
2016-06-21T13:15:17.120Z,1596
2016-06-21T13:16:16.116Z,1568
2016-06-21T13:17:16.753Z,1528
2016-06-21T13:18:15.567Z,1452
2016-06-21T13:19:16.760Z,1424
2016-06-21T13:20:16.134Z,1476
2016-06-21T13:21:16.214Z,1468
2016-06-21T13:22:16.761Z,1436
2016-06-21T13:23:16.155Z,1424
2016-06-21T13:24:15.622Z,1348
2016-06-21T13:25:15.547Z,1292
2016-06-21T13:26:16.204Z,1224
2016-06-21T13:27:15.564Z,1164
2016-06-21T13:28:17.098Z,1060
2016-06-21T13:29:16.813Z,956
2016-06-21T13:30:16.836Z,900
2016-06-21T13:31:16.866Z,840
2016-06-21T13:32:16.853Z,732
2016-06-21T13:33:16.218Z,648
2016-06-21T13:34:16.273Z,588
2016-06-21T13:35:16.608Z,536
2016-06-21T13:36:16.233Z,484
2016-06-21T13:37:16.237Z,420
2016-06-21T13:38:16.893Z,372
2016-06-21T13:39:17.399Z,352
2016-06-21T13:40:16.919Z,340
2016-06-21T13:41:16.896Z,328
2016-06-21T13:42:15.664Z,308
2016-06-21T13:43:16.300Z,272
2016-06-21T13:44:15.731Z,264
2016-06-21T13:45:16.306Z,296
2016-06-21T13:46:16.768Z,344
2016-06-21T13:47:16.298Z,388
2016-06-21T13:48:18.074Z,432
2016-06-21T13:49:16.331Z,456
2016-06-21T13:50:17.446Z,488
2016-06-21T13:51:15.101Z,512
2016-06-21T13:52:15.714Z,572
2016-06-21T13:53:16.334Z,616
2016-06-21T13:54:15.722Z,656
2016-06-21T13:55:16.348Z,708
2016-06-21T13:56:15.727Z,760
2016-06-21T13:57:17.042Z,800